KBWI/BWI METAR and TAF weather

Enter ICAO airport designator
Station Type Date Time Source
KBWI METAR 2021/08/01 16:21 UTC NOAA

KBWI 011621Z 14006KT 1 1/4SM R10/4000VP6000FT +RA BR SCT009 BKN016 OVC047 22/20 A2988 RMK AO2 P0017 T02170200


Station Type Date Time Source
KBWI Decoded METAR 2021/08/01 16:21 UTC NOAA

BALTIMORE-WASHINGTON INTERNATIONAL , MD, United States (KBWI) 39-10N 076-41W 59M
Aug 01, 2021 - 12:21 PM EDT / 2021.08.01 1621 UTC
Wind: from the SE (140 degrees) at 7 MPH (6 KT):0
Visibility: 1 1/4 mile(s):0
Sky conditions: overcast
Weather: heavy rain; mist
Precipitation last hour: 0.17 inches
Temperature: 71.1 F (21.7 C)
Dew Point: 68.0 F (20.0 C)
Relative Humidity: 90%
Pressure (altimeter): 29.88 in. Hg (1011 hPa)
ob: KBWI 011621Z 14006KT 1 1/4SM R10/4000VP6000FT +RA BR SCT009 BKN016 OVC047 22/20 A2988 RMK AO2 P0017 T02170200
cycle: 16

Station Type Date Time Source
KBWI TAF 2021/08/01 16:30 UTC NOAA

TAF
AMD KBWI 011629Z 0116/0218 15005KT 6SM -SHRA BKN020 OVC050
TEMPO 0116/0118 2SM SHRA
FM011800 16005KT P6SM VCTS BKN035CB
FM012100 18006KT P6SM BKN050
FM020100 18006KT P6SM VCTS SCT050CB BKN130
FM020400 34008G16KT P6SM FEW130

Example: see airport list